MDT,Max TemperatureF,Mean TemperatureF,Min TemperatureF,Max Dew PointF,MeanDew PointF,Min DewpointF,Max Humidity, Mean Humidity, Min Humidity, Max Sea Level PressureIn, Mean Sea Level PressureIn, Min Sea Level PressureIn, Max VisibilityMiles, Mean VisibilityMiles, Min VisibilityMiles, Max Wind SpeedMPH, Mean Wind SpeedMPH, Max Gust SpeedMPH,PrecipitationIn, CloudCover, Events, WindDirDegrees
2013-8-1,93,77,60,60,57,48,90,59,28,30.03,29.88,29.74,10,10,10,17,8,21,0.00,0,,142
2013-8-2,86,71,56,63,57,53,86,62,37,29.98,29.84,29.78,10,10,10,30,11,36,0.00,0,,78
2013-8-3,74,68,61,65,63,58,100,83,66,30.15,30.02,29.89,10,8,2,25,14,31,T,4,,108
2013-8-4,95,76,56,60,56,51,100,62,24,30.04,29.94,29.82,10,10,2,26,7,32,0.12,1,Rain-Thunderstorm,126
2013-8-5,88,73,57,63,58,49,100,67,34,30.10,29.91,29.79,10,10,8,16,7,18,0.00,2,,116
2013-8-6,90,73,56,58,54,50,84,55,26,29.98,29.85,29.77,10,10,10,28,9,32,T,1,Rain-Thunderstorm,65
2013-8-7,87,71,54,58,54,51,93,63,32,29.99,29.92,29.83,10,10,8,31,11,39,T,1,Rain,134
2013-8-8,82,67,52,58,54,49,100,70,39,30.10,29.98,29.92,10,8,0,15,7,18,0.00,0,Fog,92
2013-8-9,87,70,52,56,51,45,89,60,31,30.10,30.03,29.96,10,10,10,21,8,24,T,2,Thunderstorm,122
2013-8-10,90,71,52,59,52,42,93,57,21,30.11,30.03,29.93,10,10,4,32,4,41,0.06,1,Rain-Thunderstorm,111
2013-8-11,87,72,57,58,53,45,93,59,25,30.15,30.03,29.97,10,10,10,28,7,35,T,2,Rain-Thunderstorm,61
2013-8-12,88,69,50,56,52,46,100,66,31,30.08,30.04,29.97,10,10,5,26,6,128,0.00,1,,172
2013-8-13,87,69,50,52,49,45,89,57,25,30.24,30.06,29.99,10,10,10,32,7,40,0.00,1,,124
2013-8-14,88,69,50,54,47,36,93,57,20,30.09,30.01,29.92,10,10,10,17,5,24,0.00,0,,281
2013-8-15,89,73,57,57,50,39,93,56,18,30.08,29.97,29.91,10,10,10,24,7,32,T,0,,62
2013-8-16,90,72,53,57,55,47,100,62,23,30.16,30.02,29.93,10,7,0,13,8,16,0.00,2,Fog,123
2013-8-17,92,76,59,64,60,57,100,67,34,30.11,29.94,29.81,10,7,0,22,10,28,0.00,1,Fog,113
2013-8-18,97,79,60,63,59,50,100,61,22,30.11,29.94,29.81,10,7,0,30,8,43,0.56,2,Fog-Rain-Thunderstorm,120
2013-8-19,92,75,57,64,57,52,93,62,30,29.97,29.88,29.81,10,10,9,13,5,16,0.00,0,,117
2013-8-20,99,79,59,55,50,42,78,47,15,30.00,29.80,29.73,10,10,10,20,8,22,0.00,0,Thunderstorm,335
2013-8-21,90,76,62,61,55,49,73,50,26,30.10,29.94,29.81,10,9,2,24,8,29,0.09,2,Rain-Thunderstorm,21
2013-8-22,87,74,61,62,58,53,90,61,32,30.09,30.01,29.95,10,10,8,20,7,26,T,1,Rain,102
2013-8-23,90,76,62,63,60,51,100,66,31,30.04,29.87,29.74,10,7,0,32,6,45,0.00,2,Fog,128
2013-8-24,94,76,57,58,52,48,86,54,22,29.99,29.85,29.78,10,10,10,32,5,41,T,2,Rain-Thunderstorm,215
2013-8-25,93,76,59,58,53,43,90,54,18,29.96,29.91,29.86,10,10,10,18,4,24,0.00,0,,273
2013-8-26,95,77,59,64,55,50,78,51,23,29.97,29.91,29.87,10,10,10,24,8,33,T,1,Rain,270
2013-8-27,95,79,63,63,56,51,78,51,24,30.07,29.90,29.84,10,10,10,20,4,24,0.00,1,Thunderstorm,278
2013-8-28,97,81,64,60,55,48,78,50,22,30.05,29.91,29.83,10,10,10,30,7,39,T,2,Rain-Thunderstorm,60
2013-8-29,97,78,58,57,52,45,87,52,17,29.97,29.94,29.88,10,10,10,17,7,22,0.00,0,,346
2013-8-30,98,81,63,61,57,49,78,49,20,30.06,29.95,29.84,10,10,10,31,8,43,0.05,0,Rain-Thunderstorm,128
2013-8-31,94,77,59,60,51,41,93,55,16,29.96,29.89,29.84,10,10,10,22,10,29,0.00,0,,24